Time;durP1;ratioP1;P1;durP2;ratioP2;P2;SDS_P1;SDS_P2;PMS_P1;PMS_P2;Temp;Humidity;BMP_temperature;BMP_pressure;BME280_temperature;BME280_humidity;BME280_pressure;Samples;Min_cycle;Max_cycle;Signal;HPM_P1;HPM_P2
2022/11/09 00:00:32;;;;;;;1.63;1.20;;;;;;;15.01;62.53;100305.22;4994704;28;20234;-78
2022/11/09 00:02:59;;;;;;;1.47;1.10;;;;;;;15.05;62.53;100299.78;4994744;28;20707;-77
2022/11/09 00:05:26;;;;;;;1.30;1.20;;;;;;;15.06;62.70;100306.78;4994815;28;20234;-78
2022/11/09 00:07:53;;;;;;;1.80;1.07;;;;;;;15.03;62.58;100301.63;4994603;28;20217;-77
2022/11/09 00:10:19;;;;;;;4.97;1.30;;;;;;;15.05;62.70;100298.94;4994338;28;20215;-77
2022/11/09 00:12:46;;;;;;;2.20;1.30;;;;;;;15.05;62.82;100299.78;4994731;28;20213;-78
2022/11/09 00:15:12;;;;;;;3.77;1.30;;;;;;;15.08;62.35;100301.44;4994620;28;20254;-77
2022/11/09 00:17:38;;;;;;;1.70;1.10;;;;;;;15.07;62.09;100287.44;4994543;28;20240;-77
2022/11/09 00:20:06;;;;;;;10.40;1.60;;;;;;;15.13;62.49;100306.53;4994284;28;20211;-77
2022/11/09 00:22:33;;;;;;;1.80;1.17;;;;;;;15.09;62.67;100309.25;4994277;28;20215;-78
2022/11/09 00:25:00;;;;;;;1.37;0.93;;;;;;;15.08;62.41;100298.78;4994351;28;20741;-77
2022/11/09 00:27:27;;;;;;;1.63;1.20;;;;;;;14.99;61.99;100314.94;4995170;28;20202;-77
2022/11/09 00:29:53;;;;;;;1.10;1.00;;;;;;;15.03;62.27;100320.03;4998218;28;20225;-80
2022/11/09 00:32:20;;;;;;;2.20;1.03;;;;;;;15.04;62.28;100320.88;4996003;28;20576;-77
2022/11/09 00:34:46;;;;;;;1.00;0.90;;;;;;;15.03;62.39;100325.28;4994111;28;20241;-77
2022/11/09 00:37:13;;;;;;;1.03;0.90;;;;;;;15.03;62.58;100321.81;4994020;28;20231;-77
2022/11/09 00:39:40;;;;;;;1.27;0.90;;;;;;;14.98;62.04;100329.00;4994320;28;20209;-77
2022/11/09 00:42:07;;;;;;;1.17;1.07;;;;;;;15.01;61.82;100326.25;4993768;28;20605;-77
2022/11/09 00:44:33;;;;;;;2.33;1.40;;;;;;;15.08;62.17;100319.81;4994132;28;20230;-77
2022/11/09 00:47:00;;;;;;;1.93;1.13;;;;;;;15.06;61.86;100329.56;4994058;28;20203;-77
2022/11/09 00:49:26;;;;;;;1.10;1.00;;;;;;;15.06;61.69;100326.91;4993888;28;20225;-77
2022/11/09 00:51:53;;;;;;;1.07;0.97;;;;;;;15.07;61.90;100329.50;4992658;28;20217;-77
2022/11/09 00:54:29;;;;;;;2.10;1.10;;;;;;;15.04;61.95;100324.38;4993848;28;20607;-79
2022/11/09 00:56:56;;;;;;;1.43;1.00;;;;;;;15.09;62.29;100314.50;4993980;28;20206;-77
2022/11/09 00:59:23;;;;;;;1.37;1.13;;;;;;;15.08;61.90;100304.94;4993675;28;20682;-77
2022/11/09 01:01:49;;;;;;;2.20;0.93;;;;;;;15.02;61.82;100312.19;4993288;28;20210;-77
2022/11/09 01:04:16;;;;;;;1.60;1.00;;;;;;;14.94;62.59;100315.13;4993902;28;20226;-77
2022/11/09 01:06:42;;;;;;;1.90;1.77;;;;;;;15.02;62.43;100306.94;4993906;28;20559;-76
2022/11/09 01:09:09;;;;;;;1.13;1.07;;;;;;;15.09;62.42;100293.47;4993719;28;20221;-77
2022/11/09 01:11:35;;;;;;;1.27;1.10;;;;;;;15.08;62.53;100298.78;4993111;28;20694;-77
2022/11/09 01:14:03;;;;;;;1.23;1.13;;;;;;;15.02;62.13;100294.63;4993351;28;20612;-77
2022/11/09 01:16:29;;;;;;;1.07;1.07;;;;;;;15.04;62.30;100305.09;4993586;28;20211;-77
2022/11/09 01:18:58;;;;;;;1.13;1.03;;;;;;;15.02;62.38;100288.53;4993524;28;20233;-77
2022/11/09 01:21:26;;;;;;;1.20;1.10;;;;;;;15.03;62.29;100285.84;4993083;28;20219;-77
2022/11/09 01:23:52;;;;;;;1.57;1.00;;;;;;;15.03;62.48;100301.63;4993368;28;20238;-77
2022/11/09 01:26:19;;;;;;;1.93;1.20;;;;;;;15.09;62.48;100279.50;4993315;28;20214;-77
2022/11/09 01:28:46;;;;;;;1.33;1.00;;;;;;;15.09;62.65;100279.50;4993164;28;20238;-77
2022/11/09 01:31:15;;;;;;;1.00;1.00;;;;;;;15.05;62.62;100280.53;4992965;28;20207;-77
2022/11/09 01:33:42;;;;;;;1.40;1.00;;;;;;;15.09;62.75;100290.00;4992975;28;20716;-77
2022/11/09 01:36:11;;;;;;;1.07;0.90;;;;;;;15.08;62.70;100286.53;4993217;28;20238;-77
2022/11/09 01:38:38;;;;;;;1.00;0.90;;;;;;;15.03;62.25;100282.38;4992960;28;20228;-78
2022/11/09 01:41:06;;;;;;;1.30;1.20;;;;;;;15.07;62.81;100278.69;4992546;28;20229;-77
2022/11/09 01:43:32;;;;;;;1.87;1.73;;;;;;;15.07;62.90;100282.19;4993125;28;20254;-77
2022/11/09 01:46:03;;;;;;;1.53;0.93;;;;;;;15.09;62.98;100276.88;4993021;28;20207;-77
2022/11/09 01:48:36;;;;;;;1.43;1.07;;;;;;;15.13;62.99;100267.94;4993080;28;20210;-77
2022/11/09 01:51:09;;;;;;;1.20;0.90;;;;;;;15.09;62.50;100261.09;4992072;28;20207;-77
2022/11/09 01:53:43;;;;;;;1.37;1.10;;;;;;;15.08;62.89;100278.66;4993006;28;20215;-77
2022/11/09 01:56:13;;;;;;;1.40;0.93;;;;;;;15.14;62.81;100280.16;4992977;28;20689;-77
2022/11/09 01:58:45;;;;;;;2.00;1.10;;;;;;;15.18;62.99;100280.88;4992760;28;20237;-77
2022/11/09 02:01:14;;;;;;;1.00;1.00;;;;;;;15.13;63.00;100278.44;4992454;28;20211;-77
2022/11/09 02:03:46;;;;;;;1.43;1.07;;;;;;;15.16;63.32;100262.53;4992510;28;20207;-77
2022/11/09 02:06:16;;;;;;;1.23;0.80;;;;;;;15.07;62.98;100276.91;4992825;28;20207;-77
2022/11/09 02:08:44;;;;;;;1.10;0.87;;;;;;;15.15;62.97;100266.09;4992772;28;20204;-77
2022/11/09 02:11:12;;;;;;;1.63;1.00;;;;;;;15.16;63.24;100267.78;4992129;28;20687;-77
2022/11/09 02:13:42;;;;;;;1.03;0.80;;;;;;;15.20;63.25;100273.78;4992544;28;20213;-77
2022/11/09 02:16:10;;;;;;;0.90;0.90;;;;;;;15.17;63.39;100276.56;4992274;28;20689;-77
2022/11/09 02:18:41;;;;;;;1.00;0.90;;;;;;;15.16;63.29;100266.94;4992278;28;20749;-77
2022/11/09 02:21:09;;;;;;;1.67;1.23;;;;;;;15.21;63.09;100271.09;4992222;28;20210;-77
2022/11/09 02:23:35;;;;;;;1.10;1.00;;;;;;;15.16;63.31;100259.91;4992292;28;20706;-77
2022/11/09 02:26:08;;;;;;;0.97;0.87;;;;;;;15.22;63.22;100261.44;4992400;28;20211;-77
2022/11/09 02:28:37;;;;;;;1.27;1.13;;;;;;;15.16;63.14;100259.06;4992244;28;20204;-77
2022/11/09 02:31:07;;;;;;;1.67;1.13;;;;;;;15.18;63.51;100250.22;4992157;28;20218;-76
2022/11/09 02:33:42;;;;;;;1.57;1.20;;;;;;;15.06;63.46;100251.56;4992079;28;20678;-77
2022/11/09 02:36:10;;;;;;;1.70;0.93;;;;;;;15.04;63.44;100231.50;4992405;28;20214;-77
2022/11/09 02:38:36;;;;;;;1.00;0.90;;;;;;;15.09;63.98;100221.66;4992223;28;20238;-76
2022/11/09 02:41:03;;;;;;;1.70;1.17;;;;;;;15.12;64.20;100212.78;4991782;28;20237;-77
2022/11/09 02:43:30;;;;;;;1.00;0.90;;;;;;;15.03;64.07;100208.75;4992220;28;20211;-77
2022/11/09 02:45:56;;;;;;;1.43;0.93;;;;;;;15.09;64.25;100200.63;4992371;28;20207;-77
2022/11/09 02:48:23;;;;;;;1.37;1.27;;;;;;;15.12;64.56;100174.19;4992265;28;20206;-77
2022/11/09 02:50:49;;;;;;;1.90;1.10;;;;;;;15.07;64.40;100181.44;4991865;28;20215;-77
2022/11/09 02:53:17;;;;;;;1.53;1.10;;;;;;;15.09;64.65;100187.47;4991361;28;20709;-77
2022/11/09 02:55:43;;;;;;;1.40;1.07;;;;;;;15.13;64.71;100177.69;4992252;28;20234;-77
2022/11/09 02:58:10;;;;;;;1.53;0.97;;;;;;;15.00;64.45;100190.47;4992066;28;20234;-77
2022/11/09 03:00:37;;;;;;;2.00;1.10;;;;;;;15.09;64.71;100183.06;4991859;28;20234;-77
2022/11/09 03:03:04;;;;;;;1.13;1.03;;;;;;;15.08;64.21;100170.84;4991931;28;20212;-78
2022/11/09 03:05:30;;;;;;;1.00;0.97;;;;;;;15.05;64.30;100167.50;4991993;28;20226;-77
2022/11/09 03:08:01;;;;;;;1.50;0.90;;;;;;;15.01;64.43;100185.16;4992130;28;20213;-76
2022/11/09 03:10:28;;;;;;;1.20;1.10;;;;;;;15.02;64.46;100178.97;4991869;28;20220;-76
2022/11/09 03:12:55;;;;;;;1.10;1.00;;;;;;;15.07;64.25;100179.66;4991963;28;20210;-77
2022/11/09 03:15:21;;;;;;;1.00;0.90;;;;;;;15.12;64.45;100186.50;4992494;28;20232;-77
2022/11/09 03:17:48;;;;;;;1.87;0.90;;;;;;;15.05;63.80;100188.53;4995646;28;20231;-77
2022/11/09 03:20:14;;;;;;;1.83;0.80;;;;;;;15.14;64.10;100209.16;4995282;28;20238;-77
2022/11/09 03:22:41;;;;;;;1.13;1.00;;;;;;;15.12;64.07;100194.38;4995732;28;20207;-76
2022/11/09 03:25:08;;;;;;;1.10;0.90;;;;;;;15.08;64.42;100181.38;4995739;28;20232;-76
2022/11/09 03:27:36;;;;;;;0.90;0.90;;;;;;;15.04;64.85;100176.28;4995808;28;20229;-79
2022/11/09 03:30:03;;;;;;;1.10;1.00;;;;;;;15.12;64.85;100141.78;4995669;28;20714;-77
2022/11/09 03:32:29;;;;;;;1.47;0.90;;;;;;;15.03;64.24;100158.81;4995339;28;20214;-77
2022/11/09 03:34:55;;;;;;;2.10;0.80;;;;;;;15.07;64.67;100176.19;4995151;28;20244;-76
2022/11/09 03:37:22;;;;;;;1.07;1.03;;;;;;;15.07;64.52;100169.13;4995556;28;20207;-77
2022/11/09 03:39:48;;;;;;;1.07;0.87;;;;;;;15.07;65.02;100168.28;4995243;28;20624;-76
2022/11/09 03:42:15;;;;;;;1.50;1.00;;;;;;;15.06;64.77;100150.78;4995192;28;20217;-77
2022/11/09 03:44:42;;;;;;;1.13;0.87;;;;;;;15.13;65.10;100154.88;4995229;28;20231;-78
2022/11/09 03:47:09;;;;;;;0.80;0.80;;;;;;;15.03;64.89;100170.19;4995084;28;20689;-76
2022/11/09 03:49:35;;;;;;;0.80;0.80;;;;;;;14.98;64.90;100152.88;4995004;28;20828;-77
2022/11/09 03:52:02;;;;;;;2.40;1.00;;;;;;;15.01;65.32;100169.41;4994383;28;20216;-77
2022/11/09 03:54:28;;;;;;;1.10;1.00;;;;;;;15.04;64.97;100158.75;4995046;28;20230;-77
2022/11/09 03:56:55;;;;;;;0.80;0.80;;;;;;;15.04;65.00;100160.50;4995053;28;20219;-77
2022/11/09 03:59:21;;;;;;;1.20;0.90;;;;;;;14.99;65.35;100158.09;4995043;28;20230;-80
2022/11/09 04:01:49;;;;;;;1.53;0.80;;;;;;;14.93;65.55;100155.72;4994501;28;20211;-77
2022/11/09 04:04:15;;;;;;;0.90;0.90;;;;;;;14.89;66.01;100138.38;4994777;28;20726;-77
2022/11/09 04:06:42;;;;;;;1.20;1.10;;;;;;;14.89;66.37;100126.06;4994854;28;20701;-77
2022/11/09 04:09:09;;;;;;;1.30;0.73;;;;;;;14.89;66.22;100105.06;4994865;28;20584;-77
2022/11/09 04:11:36;;;;;;;2.27;1.00;;;;;;;14.79;66.67;100095.00;4994385;28;20214;-77
2022/11/09 04:14:02;;;;;;;1.43;0.90;;;;;;;14.72;67.08;100089.13;4994483;28;20239;-77
2022/11/09 04:16:28;;;;;;;0.80;0.80;;;;;;;14.80;67.23;100076.53;4994842;28;20208;-77
2022/11/09 04:18:56;;;;;;;1.70;0.90;;;;;;;14.86;66.97;100057.03;4994473;28;20718;-77
2022/11/09 04:21:23;;;;;;;1.20;0.83;;;;;;;14.84;67.26;100064.97;4994340;28;20207;-77
2022/11/09 04:23:49;;;;;;;1.33;0.90;;;;;;;14.74;67.75;100053.13;4994529;28;20242;-77
2022/11/09 04:26:15;;;;;;;0.90;0.90;;;;;;;14.78;68.13;100038.09;4994248;28;20700;-77
2022/11/09 04:28:42;;;;;;;1.40;1.20;;;;;;;14.77;68.28;100024.13;4993384;28;20204;-77
2022/11/09 04:31:08;;;;;;;1.23;0.90;;;;;;;14.70;68.41;100025.28;4994255;28;20284;-77
2022/11/09 04:33:35;;;;;;;1.17;1.03;;;;;;;14.66;68.85;100011.44;4994272;28;20215;-79
2022/11/09 04:36:04;;;;;;;1.43;0.93;;;;;;;14.71;69.12;100003.38;4994865;28;20211;-77
2022/11/09 04:38:31;;;;;;;1.00;0.90;;;;;;;14.68;69.39;100003.50;4994141;28;20236;-76
2022/11/09 04:41:00;;;;;;;1.73;1.07;;;;;;;14.53;69.88;99991.84;4993898;28;20218;-77
2022/11/09 04:43:26;;;;;;;2.57;1.00;;;;;;;14.54;70.05;99959.41;4993990;28;20222;-79
2022/11/09 04:45:53;;;;;;;2.30;1.47;;;;;;;14.53;70.79;99948.94;4994863;28;20217;-77
2022/11/09 04:48:19;;;;;;;1.80;1.20;;;;;;;14.43;70.95;99937.97;4994225;28;20760;-77
2022/11/09 04:50:46;;;;;;;1.33;1.00;;;;;;;14.49;71.20;99922.84;4993838;28;20208;-77
2022/11/09 04:53:15;;;;;;;1.70;1.00;;;;;;;14.59;70.99;99922.44;4993227;28;20209;-77
2022/11/09 04:55:41;;;;;;;1.57;1.00;;;;;;;14.46;71.07;99924.72;4993811;28;20282;-77
2022/11/09 04:58:08;;;;;;;1.33;1.10;;;;;;;14.47;71.74;99911.53;4993676;28;20228;-77
2022/11/09 05:00:35;;;;;;;1.20;1.00;;;;;;;14.36;72.15;99915.56;4993718;28;20211;-80
2022/11/09 05:03:02;;;;;;;2.07;1.27;;;;;;;14.37;72.00;99901.50;4993820;28;20719;-79
2022/11/09 05:05:29;;;;;;;1.83;1.20;;;;;;;14.42;72.06;99903.00;4993733;28;20234;-77
2022/11/09 05:07:56;;;;;;;1.00;0.90;;;;;;;14.32;72.82;99898.22;4993875;28;20215;-77
2022/11/09 05:10:24;;;;;;;1.00;1.00;;;;;;;14.36;72.65;99879.63;4993614;28;20203;-79
2022/11/09 05:12:50;;;;;;;1.67;1.23;;;;;;;14.30;73.28;99870.25;4994142;28;20215;-77
2022/11/09 05:15:17;;;;;;;1.47;1.30;;;;;;;14.37;73.15;99869.97;4993542;28;20230;-77
2022/11/09 05:17:43;;;;;;;1.40;1.30;;;;;;;14.33;73.53;99860.53;4993549;28;20206;-76
2022/11/09 05:20:11;;;;;;;1.30;1.20;;;;;;;14.34;73.47;99863.09;4992977;28;20267;-77
2022/11/09 05:25:25;;;;;;;1.17;1.13;;;;;;;14.28;73.97;99866.84;4993857;28;20612;-77
2022/11/09 05:27:51;;;;;;;1.73;1.20;;;;;;;14.33;74.05;99857.91;4993824;28;20211;-78
2022/11/09 05:30:18;;;;;;;1.87;1.30;;;;;;;14.33;74.01;99864.03;4996893;28;20653;-79
2022/11/09 05:32:44;;;;;;;2.40;1.20;;;;;;;14.24;74.32;99859.16;5005360;28;20206;-79
2022/11/09 05:35:11;;;;;;;1.40;1.30;;;;;;;14.23;74.48;99834.69;5023024;22;20607;-80
2022/11/09 05:37:38;;;;;;;1.90;1.47;;;;;;;14.15;74.86;99835.94;4998130;28;20209;-79
2022/11/09 05:40:05;;;;;;;1.43;1.30;;;;;;;14.15;75.07;99828.06;4997285;28;20319;-80
2022/11/09 05:42:33;;;;;;;2.00;1.20;;;;;;;14.16;75.05;99827.16;4997653;28;20211;-80
2022/11/09 05:45:00;;;;;;;1.30;1.20;;;;;;;14.16;75.01;99819.28;4997689;28;20242;-80
2022/11/09 05:47:26;;;;;;;1.13;1.03;;;;;;;14.24;74.97;99819.78;4998769;28;20210;-80
2022/11/09 05:49:52;;;;;;;1.30;1.20;;;;;;;14.21;74.69;99831.28;4998308;28;20218;-78
2022/11/09 05:52:19;;;;;;;1.70;1.37;;;;;;;14.20;75.21;99839.22;4997648;28;20217;-79
2022/11/09 05:54:45;;;;;;;2.23;1.13;;;;;;;14.23;74.79;99837.34;4998793;28;20596;-79
2022/11/09 05:57:12;;;;;;;1.60;1.50;;;;;;;14.27;74.60;99853.78;4997959;28;20583;-78
2022/11/09 05:59:39;;;;;;;2.33;1.00;;;;;;;14.21;75.15;99847.03;4997644;28;20238;-78
2022/11/09 06:02:06;;;;;;;2.13;1.40;;;;;;;14.12;75.46;99849.22;4997066;28;20217;-79
2022/11/09 06:04:32;;;;;;;1.10;1.00;;;;;;;14.11;75.58;99829.97;4997434;28;20726;-78
2022/11/09 06:06:59;;;;;;;3.13;1.40;;;;;;;14.10;75.78;99846.66;4997390;28;20214;-79
2022/11/09 06:09:25;;;;;;;1.53;1.30;;;;;;;14.07;76.26;99834.50;4997378;28;20218;-80
2022/11/09 06:11:51;;;;;;;1.50;0.90;;;;;;;14.09;76.04;99837.06;4998324;28;20694;-79
2022/11/09 06:14:18;;;;;;;1.60;1.43;;;;;;;14.05;75.97;99844.22;5000451;28;20207;-79
2022/11/09 06:16:46;;;;;;;1.20;1.10;;;;;;;14.10;76.40;99847.50;4998941;28;20207;-78
2022/11/09 06:19:12;;;;;;;1.50;1.30;;;;;;;14.04;76.58;99844.28;4999942;28;20230;-80
2022/11/09 06:21:38;;;;;;;1.30;1.20;;;;;;;14.04;76.28;99842.50;4999791;28;20211;-79
2022/11/09 06:24:05;;;;;;;1.43;1.10;;;;;;;14.02;76.68;99844.34;4999604;28;20207;-80
2022/11/09 06:26:32;;;;;;;1.30;1.20;;;;;;;14.10;76.85;99828.28;4998805;28;20226;-78
2022/11/09 06:28:58;;;;;;;2.17;1.30;;;;;;;14.04;76.47;99837.25;4998175;28;20207;-77
2022/11/09 06:31:25;;;;;;;2.33;1.37;;;;;;;14.08;76.71;99830.97;4997072;28;20209;-79
2022/11/09 06:33:52;;;;;;;1.73;1.20;;;;;;;14.09;76.70;99834.44;4997334;28;20226;-80
2022/11/09 06:36:19;;;;;;;1.93;1.30;;;;;;;14.11;76.32;99845.72;4996749;28;20241;-80
2022/11/09 06:38:48;;;;;;;1.77;1.40;;;;;;;14.19;76.20;99862.00;4997424;28;20241;-80
2022/11/09 06:41:15;;;;;;;2.03;1.40;;;;;;;14.20;76.21;99868.09;4996624;28;20204;-78
2022/11/09 06:43:41;;;;;;;1.30;1.20;;;;;;;14.07;76.59;99870.38;4997219;28;20215;-78
2022/11/09 06:46:09;;;;;;;1.00;1.00;;;;;;;14.16;76.44;99856.88;4997545;28;20225;-80
2022/11/09 06:48:36;;;;;;;1.83;1.17;;;;;;;14.17;76.71;99863.84;4997188;28;20213;-79
2022/11/09 06:51:05;;;;;;;1.90;1.30;;;;;;;14.22;76.64;99868.88;4998117;28;20208;-79
2022/11/09 06:53:32;;;;;;;1.77;1.13;;;;;;;14.23;76.62;99865.31;5001303;28;20872;-78
2022/11/09 06:55:59;;;;;;;2.07;1.00;;;;;;;14.28;76.05;99881.75;4998782;28;20237;-79
2022/11/09 06:58:26;;;;;;;1.47;1.10;;;;;;;14.24;76.44;99880.16;4998904;28;20211;-79
2022/11/09 07:00:52;;;;;;;1.40;1.30;;;;;;;14.30;76.18;99891.25;4998287;28;20222;-79
2022/11/09 07:03:21;;;;;;;0.97;0.97;;;;;;;14.34;76.06;99906.88;4998288;28;20211;-81
2022/11/09 07:05:48;;;;;;;1.50;1.40;;;;;;;14.11;77.56;99887.69;4998215;28;20230;-79
2022/11/09 07:08:17;;;;;;;3.73;1.50;;;;;;;14.12;77.13;99863.19;4998228;28;20680;-80
2022/11/09 07:10:45;;;;;;;1.10;1.00;;;;;;;14.20;77.33;99866.31;4998033;28;20588;-78
2022/11/09 07:13:12;;;;;;;1.90;1.20;;;;;;;14.27;77.16;99882.66;4998279;28;20690;-80
2022/11/09 07:15:39;;;;;;;1.43;1.00;;;;;;;14.16;77.41;99883.13;4998218;28;20231;-78
2022/11/09 07:18:07;;;;;;;2.20;1.20;;;;;;;14.20;77.68;99879.44;4998711;28;20212;-79
2022/11/09 07:20:34;;;;;;;1.27;1.17;;;;;;;14.25;77.36;99879.25;4998426;28;20875;-79
2022/11/09 07:23:00;;;;;;;2.33;1.20;;;;;;;14.27;77.60;99877.41;4998287;28;20214;-81
2022/11/09 07:25:28;;;;;;;1.77;1.07;;;;;;;14.27;77.68;99872.16;4997700;28;20234;-79
2022/11/09 07:27:54;;;;;;;1.20;1.10;;;;;;;14.28;77.49;99866.00;5000749;28;20211;-78
2022/11/09 07:30:21;;;;;;;1.50;1.10;;;;;;;14.33;77.23;99874.53;4993686;28;20203;-82
2022/11/09 07:32:47;;;;;;;2.27;1.50;;;;;;;14.35;77.06;99882.31;4989723;28;20696;-80
2022/11/09 07:35:14;;;;;;;2.97;1.30;;;;;;;14.40;77.27;99885.63;5012160;28;20237;-82
2022/11/09 07:37:40;;;;;;;2.03;1.30;;;;;;;14.33;77.05;99898.16;4993801;28;20204;-81
2022/11/09 07:40:08;;;;;;;2.03;1.20;;;;;;;14.40;76.98;99893.50;4989695;28;20220;-80
2022/11/09 07:42:36;;;;;;;1.27;1.10;;;;;;;14.49;76.92;99891.31;4987328;28;20207;-81
2022/11/09 07:45:03;;;;;;;1.83;1.07;;;;;;;14.47;76.99;99906.28;4989093;28;20228;-80
2022/11/09 07:47:30;;;;;;;2.57;1.03;;;;;;;14.59;76.74;99917.19;4988193;28;20203;-81
2022/11/09 07:49:57;;;;;;;1.53;1.20;;;;;;;14.66;76.66;99932.63;4982432;28;20595;-79
2022/11/09 07:52:23;;;;;;;1.57;1.10;;;;;;;14.69;76.56;99927.25;4986354;28;20203;-79
2022/11/09 07:54:49;;;;;;;0.77;0.77;;;;;;;14.77;76.42;99932.16;4992320;28;20236;-79
2022/11/09 07:57:16;;;;;;;1.27;1.00;;;;;;;14.66;76.73;99940.50;4992638;28;20785;-80
2022/11/09 07:59:44;;;;;;;2.17;1.13;;;;;;;14.66;76.20;99947.53;4991011;28;20221;-81
2022/11/09 08:02:10;;;;;;;1.53;1.43;;;;;;;14.59;76.30;99944.34;4988394;28;20202;-82
2022/11/09 08:04:36;;;;;;;1.60;1.23;;;;;;;14.76;75.94;99946.19;4987828;28;20229;-80
2022/11/09 08:07:03;;;;;;;1.83;1.40;;;;;;;14.78;75.80;99957.50;4993604;28;20210;-79
2022/11/09 08:09:29;;;;;;;1.43;1.07;;;;;;;14.89;75.75;99968.41;4990553;28;20208;-81
2022/11/09 08:11:56;;;;;;;3.00;1.20;;;;;;;14.90;76.11;99969.25;4989323;28;20200;-81
2022/11/09 08:14:22;;;;;;;1.77;1.00;;;;;;;14.82;76.03;99971.34;4990159;28;20207;-78
2022/11/09 08:16:51;;;;;;;1.27;0.80;;;;;;;14.76;75.95;99963.75;4987227;28;20210;-81
2022/11/09 08:19:17;;;;;;;1.00;0.90;;;;;;;14.81;76.71;99953.91;4986439;28;20326;-81
2022/11/09 08:21:44;;;;;;;1.00;0.97;;;;;;;14.88;76.18;99940.44;4991023;28;20203;-81
2022/11/09 08:24:10;;;;;;;2.57;0.87;;;;;;;14.96;75.92;99947.09;4988170;28;20233;-80
2022/11/09 08:26:37;;;;;;;1.90;0.93;;;;;;;14.92;75.69;99958.66;4995060;28;20712;-81
2022/11/09 08:29:03;;;;;;;0.97;0.87;;;;;;;14.94;75.78;99975.22;4989320;28;20203;-78
2022/11/09 08:31:29;;;;;;;1.20;0.77;;;;;;;14.94;76.12;99965.56;4987829;28;20208;-80
2022/11/09 08:33:57;;;;;;;0.90;0.90;;;;;;;14.73;76.49;99961.25;4988474;28;20206;-79
2022/11/09 08:36:25;;;;;;;1.80;1.00;;;;;;;14.74;76.99;99944.56;4990845;28;20242;-81
2022/11/09 08:38:51;;;;;;;0.90;0.70;;;;;;;14.80;76.95;99924.13;4989685;28;20230;-83
2022/11/09 08:41:17;;;;;;;1.60;0.90;;;;;;;14.86;76.88;99936.13;4992816;28;20701;-82
2022/11/09 08:43:44;;;;;;;2.00;1.20;;;;;;;14.81;77.13;99944.25;4993050;28;20586;-83
2022/11/09 08:46:10;;;;;;;0.90;0.90;;;;;;;14.79;78.06;99926.84;4991222;28;20227;-82
2022/11/09 08:48:37;;;;;;;1.00;0.83;;;;;;;14.76;79.31;99877.06;4990162;28;20200;-79
2022/11/09 08:51:05;;;;;;;0.80;0.80;;;;;;;14.78;82.45;99801.63;4984488;28;20596;-80
2022/11/09 08:53:31;;;;;;;0.97;0.97;;;;;;;14.69;82.86;99759.13;4983665;28;20670;-84
2022/11/09 08:55:58;;;;;;;1.87;0.87;;;;;;;14.61;84.90;99708.72;4984734;28;20231;-80
2022/11/09 08:58:24;;;;;;;1.23;1.13;;;;;;;14.66;85.12;99690.94;4986200;28;20211;-79
2022/11/09 09:00:51;;;;;;;1.30;1.20;;;;;;;14.67;86.06;99676.91;4984557;28;20231;-80
2022/11/09 09:03:18;;;;;;;1.63;1.13;;;;;;;14.52;86.65;99661.00;4986391;28;20202;-80
2022/11/09 09:05:44;;;;;;;2.20;1.30;;;;;;;14.43;88.59;99623.75;4986132;28;20216;-79
2022/11/09 09:08:14;;;;;;;1.93;1.10;;;;;;;14.22;90.79;99581.00;4986623;28;20227;-83
2022/11/09 09:10:41;;;;;;;1.17;1.00;;;;;;;14.28;90.49;99570.19;4987923;28;20232;-82
2022/11/09 09:13:07;;;;;;;1.63;1.53;;;;;;;14.35;90.43;99593.50;4988437;28;20207;-80
2022/11/09 09:15:34;;;;;;;1.40;1.30;;;;;;;14.21;91.73;99568.81;4984039;28;20221;-81
2022/11/09 09:18:01;;;;;;;4.00;1.37;;;;;;;14.12;93.45;99536.91;4984456;28;20207;-79
2022/11/09 09:20:28;;;;;;;1.30;1.17;;;;;;;13.93;94.51;99522.00;4985960;28;20234;-80
2022/11/09 09:22:57;;;;;;;1.53;1.43;;;;;;;13.58;98.44;99463.38;4984697;28;20212;-82
2022/11/09 09:25:25;;;;;;;3.57;1.60;;;;;;;13.62;99.31;99442.16;4986914;28;20732;-81
2022/11/09 09:27:52;;;;;;;3.07;1.80;;;;;;;13.74;99.02;99466.97;4986597;28;20470;-83
2022/11/09 09:30:19;;;;;;;2.33;2.07;;;;;;;13.76;98.39;99495.75;4985728;28;20206;-84
2022/11/09 09:32:45;;;;;;;2.70;2.50;;;;;;;13.81;98.60;99526.06;4983116;28;20207;-80
2022/11/09 09:35:11;;;;;;;6.23;2.77;;;;;;;13.50;100.00;99495.19;4985119;28;20233;-78
2022/11/09 09:37:38;;;;;;;3.40;2.73;;;;;;;13.44;100.00;99485.84;4984243;28;20206;-79
2022/11/09 09:40:06;;;;;;;3.07;2.30;;;;;;;13.18;100.00;99500.09;4982829;28;20222;-78
2022/11/09 09:42:36;;;;;;;3.07;1.40;;;;;;;13.23;100.00;99502.50;4984408;28;20693;-79
2022/11/09 09:45:05;;;;;;;1.20;0.83;;;;;;;13.09;100.00;99517.06;4984489;28;20221;-78
2022/11/09 09:47:44;;;;;;;1.80;0.70;;;;;;;13.15;100.00;99525.59;4984275;28;20200;-80
2022/11/09 09:50:14;;;;;;;0.87;0.50;;;;;;;13.07;99.60;99567.84;4991850;28;20292;-80
2022/11/09 09:52:44;;;;;;;0.93;0.60;;;;;;;13.19;99.35;99588.25;4993086;28;20217;-78
2022/11/09 09:55:21;;;;;;;1.67;0.70;;;;;;;13.21;98.96;99593.44;4994940;28;20638;-78
2022/11/09 09:57:54;;;;;;;2.00;0.70;;;;;;;13.22;99.11;99611.72;4993854;28;20214;-78
2022/11/09 10:00:23;;;;;;;1.40;0.80;;;;;;;13.06;100.00;99587.06;4993982;28;20242;-80
2022/11/09 10:02:50;;;;;;;1.13;0.70;;;;;;;13.17;100.00;99591.88;4993454;28;20269;-80
2022/11/09 10:05:19;;;;;;;1.83;1.00;;;;;;;13.28;100.00;99602.75;4993335;28;20248;-84
2022/11/09 10:07:54;;;;;;;2.37;0.90;;;;;;;13.37;100.00;99596.28;4993523;28;20210;-80
2022/11/09 10:10:36;;;;;;;2.03;0.70;;;;;;;13.46;99.54;99609.84;4994559;28;20221;-83
2022/11/09 10:13:27;;;;;;;0.73;0.50;;;;;;;13.61;98.49;99625.78;4994971;28;21069;-80
2022/11/09 10:15:58;;;;;;;0.50;0.50;;;;;;;13.64;98.06;99644.03;4994180;28;20233;-81
2022/11/09 10:18:37;;;;;;;0.70;0.60;;;;;;;13.59;98.82;99636.34;4995971;28;20221;-81
2022/11/09 10:21:23;;;;;;;1.93;0.60;;;;;;;13.50;98.26;99637.63;4993547;28;20232;-80
2022/11/09 10:24:01;;;;;;;0.63;0.50;;;;;;;13.39;97.77;99652.09;4993788;28;20222;-81
2022/11/09 10:26:33;;;;;;;1.33;0.70;;;;;;;13.28;97.40;99653.41;4993395;28;20291;-80
2022/11/09 10:29:12;;;;;;;1.33;0.60;;;;;;;13.16;98.51;99656.53;4994005;28;20531;-83
2022/11/09 10:31:41;;;;;;;2.13;0.63;;;;;;;13.30;98.06;99651.59;4997354;28;20212;-85
2022/11/09 10:34:17;;;;;;;0.93;0.60;;;;;;;13.25;99.07;99624.69;4997839;28;20305;-83
2022/11/09 10:36:47;;;;;;;1.03;0.67;;;;;;;13.30;98.68;99638.47;4996934;28;20205;-82
2022/11/09 10:39:15;;;;;;;1.17;0.60;;;;;;;13.36;98.59;99650.47;4997659;28;20240;-84
2022/11/09 10:41:45;;;;;;;0.40;0.40;;;;;;;13.43;97.02;99669.41;4993163;28;20599;-80
2022/11/09 10:44:15;;;;;;;0.57;0.57;;;;;;;13.47;97.11;99671.81;4992883;28;20695;-80
2022/11/09 10:47:07;;;;;;;1.97;1.30;;;;;;;13.41;96.22;99687.81;4992857;28;20206;-80
2022/11/09 10:49:36;;;;;;;0.50;0.50;;;;;;;13.41;96.24;99695.69;4993171;28;20203;-81
2022/11/09 10:52:03;;;;;;;0.70;0.50;;;;;;;13.53;96.69;99683.81;4994945;28;20212;-79
2022/11/09 10:54:33;;;;;;;0.70;0.50;;;;;;;13.63;96.06;99689.50;4992839;28;20257;-81
2022/11/09 10:57:09;;;;;;;2.00;0.47;;;;;;;13.67;96.07;99694.56;4993606;28;20730;-79
2022/11/09 10:59:50;;;;;;;4.00;0.50;;;;;;;13.64;95.52;99715.69;4993854;28;20249;-79
2022/11/09 11:02:43;;;;;;;1.33;0.60;;;;;;;13.66;96.40;99689.41;4993906;28;20253;-81
2022/11/09 11:05:31;;;;;;;3.17;0.50;;;;;;;13.62;96.95;99683.44;4993265;28;20237;-80
2022/11/09 11:07:58;;;;;;;1.43;0.40;;;;;;;13.55;96.83;99684.59;4992928;28;20221;-80
2022/11/09 11:10:25;;;;;;;2.60;0.70;;;;;;;13.64;96.16;99691.25;4993198;28;20213;-80
2022/11/09 11:13:17;;;;;;;0.30;0.30;;;;;;;13.50;97.76;99678.72;4992812;28;20205;-80
2022/11/09 11:15:45;;;;;;;1.73;0.50;;;;;;;13.63;97.65;99660.66;4992752;28;20234;-79
2022/11/09 11:18:16;;;;;;;1.00;0.50;;;;;;;13.63;95.84;99685.13;4992723;28;20214;-80
2022/11/09 11:20:42;;;;;;;0.50;0.50;;;;;;;13.45;95.89;99697.25;4993124;28;20604;-79
2022/11/09 11:23:14;;;;;;;1.03;0.50;;;;;;;13.64;96.05;99693.84;4993295;28;20214;-80
2022/11/09 11:25:56;;;;;;;0.70;0.40;;;;;;;13.49;95.69;99711.09;4996094;28;20236;-83
2022/11/09 11:28:31;;;;;;;0.80;0.50;;;;;;;13.63;96.09;99692.97;4996037;28;20222;-84
2022/11/09 11:31:00;;;;;;;0.90;0.60;;;;;;;13.57;96.71;99689.78;4995445;28;20194;-80
2022/11/09 11:33:28;;;;;;;1.00;0.60;;;;;;;13.41;96.45;99682.56;4996251;28;20699;-83
2022/11/09 11:35:58;;;;;;;1.77;0.70;;;;;;;13.38;94.93;99693.22;5016821;22;20234;-77